Airport View

Enter AWOS ICAO identifier for current METAR.

ex. KFNL

KHWY 202340Z AUTO 13005KT 10SM CLR 18/15 A3021 RMK AO2 T01760145

20 Oct 2020 23:48

Frequency: 120.350

Phone: 540-788-4078

Other Area AWOS: KCJR - KHEF - KRMN - KNYG

TAF KNYG 2021/2121 VRB06KT 9999 SKC QNH3017INS BECMG 2102/2104 VRB06KT 4800 BR SCT005 QNH3022INS FM211300 VRB06KT 9999 SCT020 QNH3025INS T16/2105Z T23/2120Z